createdAt,value
2023-05-12T00:00:48.917Z,91.40
2023-05-12T00:03:54.014Z,91.40
2023-05-12T00:06:56.618Z,91.40
2023-05-12T00:10:05.579Z,91.60
2023-05-12T00:13:09.174Z,91.40
2023-05-12T00:16:11.402Z,91.40
2023-05-12T00:19:13.633Z,91.40
2023-05-12T00:22:17.016Z,91.30
2023-05-12T00:25:19.245Z,91.40
2023-05-12T00:28:21.290Z,91.40
2023-05-12T00:31:23.393Z,91.30
2023-05-12T00:34:27.101Z,91.20
2023-05-12T00:37:29.398Z,91.10
2023-05-12T00:40:31.578Z,91.50
2023-05-12T00:43:33.821Z,91.00
2023-05-12T00:46:36.917Z,91.10
2023-05-12T00:49:42.748Z,91.00
2023-05-12T00:52:47.901Z,91.20
2023-05-12T00:55:50.047Z,91.20
2023-05-12T00:58:52.208Z,91.20
2023-05-12T01:01:54.387Z,91.20
2023-05-12T01:04:56.461Z,91.20
2023-05-12T01:08:00.697Z,91.20
2023-05-12T01:11:03.508Z,91.20
2023-05-12T01:14:06.042Z,91.40
2023-05-12T01:17:13.044Z,91.50
2023-05-12T01:20:22.776Z,91.70
2023-05-12T01:23:36.852Z,91.70
2023-05-12T01:26:38.958Z,91.70
2023-05-12T01:29:41.546Z,91.70
2023-05-12T01:32:44.334Z,91.80
2023-05-12T01:35:47.506Z,91.90
2023-05-12T01:38:50.589Z,92.00
2023-05-12T01:41:53.636Z,92.20
2023-05-12T01:44:55.720Z,92.30
2023-05-12T01:47:57.904Z,92.30
2023-05-12T01:51:01.400Z,92.40
2023-05-12T01:54:03.543Z,92.40
2023-05-12T01:57:12.325Z,92.30
2023-05-12T02:00:15.762Z,92.50
2023-05-12T02:03:18.267Z,92.40
2023-05-12T02:06:21.580Z,92.50
2023-05-12T02:09:23.743Z,92.80
2023-05-12T02:12:25.887Z,93.10
2023-05-12T02:15:28.050Z,93.30
2023-05-12T02:18:30.320Z,93.50
2023-05-12T02:21:33.000Z,93.50
2023-05-12T02:24:35.150Z,93.60
2023-05-12T02:27:37.224Z,93.60
2023-05-12T02:30:39.482Z,93.80
2023-05-12T02:33:41.682Z,93.90
2023-05-12T02:36:44.147Z,94.00
2023-05-12T02:39:46.374Z,94.20
2023-05-12T02:42:48.570Z,94.30
2023-05-12T02:45:51.872Z,94.30
2023-05-12T02:48:54.061Z,94.40
2023-05-12T02:51:56.231Z,94.40
2023-05-12T02:54:58.472Z,94.40
2023-05-12T02:58:00.562Z,94.50
2023-05-12T03:01:10.082Z,94.50
2023-05-12T03:04:13.159Z,94.40
2023-05-12T03:07:15.466Z,94.60
2023-05-12T03:10:19.284Z,94.50
2023-05-12T03:13:22.470Z,94.50
2023-05-12T03:16:24.822Z,94.60
2023-05-12T03:19:27.985Z,94.60
2023-05-12T03:22:30.777Z,94.60
2023-05-12T03:25:35.108Z,94.40
2023-05-12T03:28:37.760Z,94.40
2023-05-12T03:31:39.820Z,94.40
2023-05-12T03:34:42.051Z,94.20
2023-05-12T03:37:44.120Z,94.20
2023-05-12T03:40:46.749Z,94.30
2023-05-12T03:43:49.034Z,94.20
2023-05-12T03:46:51.446Z,94.10
2023-05-12T03:49:53.598Z,94.10
2023-05-12T03:52:56.307Z,94.10
2023-05-12T03:55:58.381Z,94.10
2023-05-12T03:59:00.555Z,94.10
2023-05-12T04:02:02.630Z,94.00
2023-05-12T04:05:08.246Z,94.00
2023-05-12T04:08:10.364Z,94.10
2023-05-12T04:11:12.785Z,93.80
2023-05-12T04:14:14.806Z,93.80
2023-05-12T04:17:19.296Z,93.80
2023-05-12T04:20:22.484Z,93.90
2023-05-12T04:23:25.079Z,93.90
2023-05-12T04:26:27.709Z,94.00
2023-05-12T04:29:30.062Z,93.90
2023-05-12T04:32:32.267Z,93.90
2023-05-12T04:35:34.592Z,93.90
2023-05-12T04:38:37.115Z,93.90
2023-05-12T04:41:39.655Z,94.00
2023-05-12T04:44:42.157Z,94.00
2023-05-12T04:47:44.353Z,94.00
2023-05-12T04:50:47.545Z,94.10
2023-05-12T04:53:49.827Z,94.10
2023-05-12T04:56:52.270Z,94.40
2023-05-12T04:59:54.484Z,94.00
2023-05-12T05:02:56.653Z,93.90
2023-05-12T05:05:58.752Z,93.90
2023-05-12T05:09:00.889Z,93.90
2023-05-12T05:12:02.940Z,93.80
2023-05-12T05:15:05.564Z,93.80
2023-05-12T05:18:07.966Z,93.60
2023-05-12T05:21:10.096Z,93.70
2023-05-12T05:24:14.621Z,93.60
2023-05-12T05:27:16.962Z,93.50
2023-05-12T05:30:19.343Z,93.40
2023-05-12T05:33:21.513Z,93.30
2023-05-12T05:36:24.750Z,93.10
2023-05-12T05:39:30.833Z,93.10
2023-05-12T05:42:33.211Z,93.00
2023-05-12T05:45:36.132Z,93.00
2023-05-12T05:48:38.611Z,93.00
2023-05-12T05:51:41.037Z,92.70
2023-05-12T05:54:43.174Z,92.70
2023-05-12T05:57:45.264Z,92.60
2023-05-12T06:00:47.703Z,92.10
2023-05-12T06:03:50.110Z,91.90
2023-05-12T06:06:52.450Z,91.60
2023-05-12T06:09:55.246Z,91.50
2023-05-12T06:12:57.254Z,91.60
2023-05-12T06:15:59.325Z,91.50
2023-05-12T06:19:01.795Z,91.00
2023-05-12T06:22:03.979Z,90.20
2023-05-12T06:25:06.679Z,89.60
2023-05-12T06:28:09.023Z,88.10
2023-05-12T06:31:11.105Z,87.10
2023-05-12T06:34:13.964Z,86.00
2023-05-12T06:37:16.073Z,85.30
2023-05-12T06:40:18.342Z,83.60
2023-05-12T06:43:20.602Z,83.10
2023-05-12T06:46:24.054Z,81.20
2023-05-12T06:49:26.285Z,80.10
2023-05-12T06:52:28.463Z,79.40
2023-05-12T06:55:30.614Z,78.10
2023-05-12T06:58:32.912Z,76.10
2023-05-12T07:01:38.550Z,76.10
2023-05-12T07:04:41.090Z,75.60
2023-05-12T07:07:43.129Z,74.80
2023-05-12T07:10:45.521Z,75.20
2023-05-12T07:13:47.743Z,73.60
2023-05-12T07:16:50.020Z,72.60
2023-05-12T07:19:52.891Z,73.20
2023-05-12T07:22:55.374Z,71.00
2023-05-12T07:25:57.793Z,70.70
2023-05-12T07:29:01.130Z,67.80
2023-05-12T07:32:03.596Z,67.10
2023-05-12T07:35:06.281Z,66.00
2023-05-12T07:38:09.693Z,66.60
2023-05-12T07:41:11.886Z,65.00
2023-05-12T07:44:13.977Z,65.00
2023-05-12T07:47:16.330Z,64.20
2023-05-12T07:50:19.754Z,63.40
2023-05-12T07:53:22.282Z,65.20
2023-05-12T07:56:24.943Z,65.20
2023-05-12T07:59:27.082Z,63.00
2023-05-12T08:02:29.330Z,62.80
2023-05-12T08:05:31.767Z,61.30
2023-05-12T08:08:34.614Z,60.90
2023-05-12T08:11:36.927Z,60.30
2023-05-12T08:14:39.094Z,60.50
2023-05-12T08:17:41.911Z,60.20
2023-05-12T08:20:44.327Z,58.40
2023-05-12T08:23:46.424Z,60.20
2023-05-12T08:26:48.661Z,59.40
2023-05-12T08:29:50.827Z,58.40
2023-05-12T08:32:53.786Z,57.30
2023-05-12T08:35:56.246Z,57.70
2023-05-12T08:38:58.700Z,53.90
2023-05-12T08:42:09.539Z,56.90
2023-05-12T08:45:13.698Z,55.30
2023-05-12T08:48:19.102Z,53.90
2023-05-12T08:51:24.668Z,54.80
2023-05-12T08:54:28.633Z,52.80
2023-05-12T08:57:31.864Z,49.50
2023-05-12T09:00:36.580Z,50.10
2023-05-12T09:03:39.266Z,48.40
2023-05-12T09:06:42.948Z,47.80
2023-05-12T09:09:47.059Z,47.50
2023-05-12T09:12:52.491Z,48.90
2023-05-12T09:15:56.891Z,49.10
2023-05-12T09:19:01.630Z,49.30
2023-05-12T09:22:04.093Z,48.30
2023-05-12T09:25:19.235Z,48.70
2023-05-12T09:28:21.607Z,50.00
2023-05-12T09:31:33.069Z,48.50
2023-05-12T09:34:38.658Z,48.30
2023-05-12T09:37:41.105Z,46.90
2023-05-12T09:40:43.763Z,46.50
2023-05-12T09:43:46.501Z,45.90
2023-05-12T09:46:49.209Z,45.20
2023-05-12T09:49:52.571Z,44.60
2023-05-12T09:52:54.920Z,43.30
2023-05-12T09:55:57.210Z,42.90
2023-05-12T09:58:59.295Z,44.80
2023-05-12T10:02:02.945Z,43.10
2023-05-12T10:05:08.832Z,43.00
2023-05-12T10:08:17.656Z,42.30
2023-05-12T10:11:22.583Z,43.00
2023-05-12T10:14:31.582Z,43.40
2023-05-12T10:17:36.043Z,45.70
2023-05-12T10:20:39.390Z,45.50
2023-05-12T10:23:41.868Z,44.70
2023-05-12T10:26:44.914Z,43.30
2023-05-12T10:29:48.300Z,42.70
2023-05-12T10:32:51.151Z,43.70
2023-05-12T10:35:53.852Z,42.50
2023-05-12T10:39:04.369Z,42.90
2023-05-12T10:42:06.835Z,41.60
2023-05-12T10:45:20.139Z,43.50
2023-05-12T10:48:22.822Z,43.90
2023-05-12T10:51:46.252Z,45.20
2023-05-12T10:54:48.411Z,44.20
2023-05-12T10:57:52.077Z,46.80
2023-05-12T11:00:55.567Z,48.10
2023-05-12T11:04:09.894Z,47.30
2023-05-12T11:07:15.130Z,46.50
2023-05-12T11:10:20.057Z,44.30
2023-05-12T11:13:22.385Z,42.40
2023-05-12T11:16:25.025Z,42.60
2023-05-12T11:19:28.307Z,40.80
2023-05-12T11:22:30.940Z,43.70
2023-05-12T11:25:33.232Z,47.40
2023-05-12T11:28:41.628Z,47.00
2023-05-12T11:31:50.937Z,47.90
2023-05-12T11:34:53.253Z,49.60
2023-05-12T11:37:56.116Z,48.90
2023-05-12T11:40:58.369Z,49.50
2023-05-12T11:44:00.509Z,51.50
2023-05-12T11:47:13.503Z,52.00
2023-05-12T11:50:23.157Z,53.90
2023-05-12T11:53:26.081Z,54.50
2023-05-12T11:56:30.650Z,55.30
2023-05-12T11:59:35.939Z,54.20
2023-05-12T12:02:39.790Z,55.00
2023-05-12T12:05:45.449Z,56.00
2023-05-12T12:09:02.329Z,55.60
2023-05-12T12:12:06.370Z,54.20
2023-05-12T12:15:09.330Z,54.60
2023-05-12T12:18:11.492Z,54.70
2023-05-12T12:21:13.774Z,57.70
2023-05-12T12:24:15.972Z,58.50
2023-05-12T12:27:18.038Z,57.90
2023-05-12T12:30:20.281Z,57.10
2023-05-12T12:33:22.371Z,57.50
2023-05-12T12:36:24.677Z,57.70
2023-05-12T12:39:27.268Z,57.00
2023-05-12T12:42:29.419Z,58.50
2023-05-12T12:45:31.807Z,57.90
2023-05-12T12:48:34.044Z,57.40
2023-05-12T12:51:45.502Z,59.00
2023-05-12T12:54:48.784Z,60.10
2023-05-12T12:57:50.820Z,60.50
2023-05-12T13:00:53.302Z,61.30
2023-05-12T13:03:55.320Z,60.80
2023-05-12T13:06:57.466Z,61.00
2023-05-12T13:09:59.698Z,59.60
2023-05-12T13:13:02.195Z,59.50
2023-05-12T13:16:04.821Z,59.30
2023-05-12T13:19:08.345Z,57.80
2023-05-12T13:22:11.045Z,57.80
2023-05-12T13:25:13.218Z,56.80
2023-05-12T13:28:15.277Z,57.20
2023-05-12T13:31:17.578Z,57.40
2023-05-12T13:34:21.421Z,57.30
2023-05-12T13:37:23.572Z,57.40
2023-05-12T13:40:25.753Z,57.90
2023-05-12T13:43:28.467Z,58.40
2023-05-12T13:46:30.775Z,57.10
2023-05-12T13:49:32.835Z,56.20
2023-05-12T13:52:35.036Z,55.90
2023-05-12T13:55:40.775Z,56.40
2023-05-12T13:58:43.274Z,57.00
2023-05-12T14:01:45.710Z,56.90
2023-05-12T14:04:48.066Z,58.50
2023-05-12T14:07:50.150Z,56.90
2023-05-12T14:10:54.216Z,57.10
2023-05-12T14:13:57.605Z,56.90
2023-05-12T14:16:59.706Z,58.60
2023-05-12T14:20:02.009Z,59.40
2023-05-12T14:23:04.457Z,61.10
2023-05-12T14:26:06.871Z,61.10
2023-05-12T14:29:09.064Z,59.50
2023-05-12T14:32:11.488Z,57.30
2023-05-12T14:35:21.205Z,57.50
2023-05-12T14:38:23.629Z,59.40
2023-05-12T14:41:25.898Z,60.30
2023-05-12T14:44:28.009Z,58.80
2023-05-12T14:47:30.166Z,56.50
2023-05-12T14:50:32.383Z,60.10
2023-05-12T14:53:34.523Z,60.30
2023-05-12T14:56:36.977Z,59.80
2023-05-12T14:59:39.486Z,59.70
2023-05-12T15:02:44.118Z,60.10
2023-05-12T15:06:04.896Z,59.80
2023-05-12T15:09:08.615Z,56.10
2023-05-12T15:12:10.946Z,57.60
2023-05-12T15:15:13.277Z,58.00
2023-05-12T15:18:15.789Z,58.80
2023-05-12T15:21:18.128Z,58.30
2023-05-12T15:24:20.301Z,58.20
2023-05-12T15:27:26.312Z,54.90
2023-05-12T15:30:28.421Z,57.30
2023-05-12T15:33:31.658Z,59.10
2023-05-12T15:36:34.263Z,59.00
2023-05-12T15:39:36.692Z,59.60
2023-05-12T15:42:40.802Z,60.20
2023-05-12T15:45:43.018Z,60.10
2023-05-12T15:48:45.378Z,60.60
2023-05-12T15:51:48.568Z,61.00
2023-05-12T15:54:51.358Z,61.90
2023-05-12T15:57:54.580Z,61.90
2023-05-12T16:00:56.889Z,61.70
2023-05-12T16:03:59.664Z,62.10
2023-05-12T16:07:01.899Z,61.60
2023-05-12T16:10:06.008Z,61.10
2023-05-12T16:13:08.907Z,61.60
2023-05-12T16:16:11.230Z,61.70
2023-05-12T16:19:14.015Z,64.30
2023-05-12T16:22:16.404Z,66.10
2023-05-12T16:25:18.933Z,65.80
2023-05-12T16:28:21.819Z,65.60
2023-05-12T16:31:24.099Z,65.70
2023-05-12T16:34:26.465Z,66.30
2023-05-12T16:37:28.805Z,66.40
2023-05-12T16:40:30.912Z,66.80
2023-05-12T16:43:33.178Z,66.90
2023-05-12T16:46:36.116Z,66.00
2023-05-12T16:49:38.276Z,65.70
2023-05-12T16:52:40.878Z,66.70
2023-05-12T16:55:43.252Z,67.50
2023-05-12T16:58:45.458Z,68.20
2023-05-12T17:01:47.988Z,69.00
2023-05-12T17:04:51.561Z,70.30
2023-05-12T17:07:53.801Z,70.40
2023-05-12T17:10:56.144Z,68.40
2023-05-12T17:13:58.195Z,69.60
2023-05-12T17:17:01.580Z,70.30
2023-05-12T17:20:06.260Z,70.60
2023-05-12T17:23:09.320Z,71.10
2023-05-12T17:26:11.598Z,71.70
2023-05-12T17:29:14.291Z,70.20
2023-05-12T17:32:17.178Z,71.00
2023-05-12T17:35:20.058Z,70.90
2023-05-12T17:38:22.423Z,72.00
2023-05-12T17:41:26.393Z,70.80
2023-05-12T17:44:30.340Z,70.70
2023-05-12T17:47:33.659Z,70.50
2023-05-12T17:50:35.935Z,70.70
2023-05-12T17:53:40.864Z,70.90
2023-05-12T17:56:44.744Z,70.90
2023-05-12T17:59:47.424Z,71.30
2023-05-12T18:02:49.890Z,71.80
2023-05-12T18:05:54.439Z,72.10
2023-05-12T18:08:56.782Z,72.40
2023-05-12T18:11:59.469Z,73.80
2023-05-12T18:15:01.647Z,74.50
2023-05-12T18:18:04.488Z,74.70
2023-05-12T18:21:06.833Z,74.50
2023-05-12T18:24:09.111Z,75.00
2023-05-12T18:27:11.427Z,75.50
2023-05-12T18:30:15.053Z,76.40
2023-05-12T18:33:17.858Z,77.70
2023-05-12T18:36:21.281Z,77.70
2023-05-12T18:39:26.886Z,78.00
2023-05-12T18:42:29.291Z,78.10
2023-05-12T18:45:31.803Z,77.60
2023-05-12T18:48:34.069Z,76.50
2023-05-12T18:51:36.862Z,76.90
2023-05-12T18:54:40.059Z,77.80
2023-05-12T18:57:42.250Z,78.70
2023-05-12T19:00:45.162Z,79.10
2023-05-12T19:03:47.264Z,79.20
2023-05-12T19:06:49.584Z,79.70
2023-05-12T19:09:51.762Z,79.60
2023-05-12T19:12:54.263Z,79.80
2023-05-12T19:15:56.374Z,80.40
2023-05-12T19:18:58.521Z,81.00
2023-05-12T19:22:01.127Z,81.10
2023-05-12T19:25:04.342Z,81.50
2023-05-12T19:28:07.151Z,82.10
2023-05-12T19:31:12.612Z,82.30
2023-05-12T19:34:14.708Z,82.60
2023-05-12T19:37:17.579Z,83.30
2023-05-12T19:40:19.972Z,83.60
2023-05-12T19:43:22.588Z,83.80
2023-05-12T19:46:25.010Z,84.40
2023-05-12T19:49:27.289Z,84.80
2023-05-12T19:52:31.390Z,84.80
2023-05-12T19:55:33.745Z,85.20
2023-05-12T19:58:36.022Z,85.40
2023-05-12T20:01:38.285Z,85.80
2023-05-12T20:04:40.590Z,85.90
2023-05-12T20:07:42.714Z,86.20
2023-05-12T20:10:44.849Z,86.10
2023-05-12T20:13:46.953Z,86.40
2023-05-12T20:16:49.452Z,86.70
2023-05-12T20:19:51.877Z,86.70
2023-05-12T20:22:54.249Z,87.00
2023-05-12T20:25:56.544Z,87.20
2023-05-12T20:28:59.627Z,87.70
2023-05-12T20:32:01.707Z,88.10
2023-05-12T20:35:04.012Z,88.20
2023-05-12T20:38:07.149Z,88.50
2023-05-12T20:41:09.723Z,88.50
2023-05-12T20:44:12.026Z,88.50
2023-05-12T20:47:14.280Z,88.90
2023-05-12T20:50:17.072Z,88.90
2023-05-12T20:53:19.412Z,89.30
2023-05-12T20:56:24.248Z,89.50
2023-05-12T20:59:26.357Z,90.00
2023-05-12T21:02:29.363Z,90.20
2023-05-12T21:05:31.950Z,90.20
2023-05-12T21:08:34.149Z,90.40
2023-05-12T21:11:36.381Z,90.50
2023-05-12T21:14:43.088Z,90.50
2023-05-12T21:17:45.200Z,90.60
2023-05-12T21:20:47.294Z,90.60
2023-05-12T21:23:49.373Z,90.80
2023-05-12T21:26:51.443Z,91.00
2023-05-12T21:29:53.547Z,91.20
2023-05-12T21:32:56.061Z,91.20
2023-05-12T21:35:58.697Z,91.30
2023-05-12T21:39:01.042Z,91.30
2023-05-12T21:42:04.904Z,91.60
2023-05-12T21:45:07.649Z,91.50
2023-05-12T21:48:09.783Z,91.70
2023-05-12T21:51:12.121Z,91.80
2023-05-12T21:54:14.275Z,92.00
2023-05-12T21:57:16.399Z,92.20
2023-05-12T22:00:20.290Z,92.30
2023-05-12T22:03:25.139Z,92.30
2023-05-12T22:06:27.629Z,92.40
2023-05-12T22:09:31.228Z,92.60
2023-05-12T22:12:35.121Z,92.60
2023-05-12T22:15:37.389Z,92.60
2023-05-12T22:18:43.521Z,92.60
2023-05-12T22:21:45.820Z,92.90
2023-05-12T22:24:52.012Z,92.80
2023-05-12T22:27:54.104Z,92.80
2023-05-12T22:30:56.262Z,92.90
2023-05-12T22:33:58.451Z,92.90
2023-05-12T22:37:00.985Z,93.00
2023-05-12T22:40:03.918Z,93.10
2023-05-12T22:43:07.027Z,93.10
2023-05-12T22:46:09.738Z,93.20
2023-05-12T22:49:11.877Z,93.20
2023-05-12T22:52:14.220Z,93.20
2023-05-12T22:55:16.325Z,93.30
2023-05-12T22:58:18.569Z,93.30
2023-05-12T23:01:20.879Z,93.30
2023-05-12T23:04:23.214Z,93.40
2023-05-12T23:07:25.355Z,93.30
2023-05-12T23:10:27.595Z,93.30
2023-05-12T23:13:29.924Z,93.20
2023-05-12T23:16:32.166Z,93.40
2023-05-12T23:19:34.466Z,93.50
2023-05-12T23:22:36.602Z,93.10
2023-05-12T23:25:38.893Z,93.40
2023-05-12T23:28:40.939Z,93.40
2023-05-12T23:31:43.614Z,93.50
2023-05-12T23:34:45.920Z,93.60
2023-05-12T23:37:48.245Z,93.50
2023-05-12T23:40:50.506Z,93.60
2023-05-12T23:43:52.801Z,93.60
2023-05-12T23:46:54.910Z,93.70
2023-05-12T23:49:57.107Z,93.70
2023-05-12T23:52:59.178Z,93.70
2023-05-12T23:56:02.136Z,93.70
2023-05-12T23:59:04.204Z,93.70
